sensor_id;sensor_type;location;lat;lon;timestamp;temperature;humidity
1351;DHT22;669;50.206;9.998;2023-04-03T00:01:10;3.10;92.90
1351;DHT22;669;50.206;9.998;2023-04-03T00:03:38;3.10;93.10
1351;DHT22;669;50.206;9.998;2023-04-03T00:06:10;3.10;92.90
1351;DHT22;669;50.206;9.998;2023-04-03T00:08:39;3.10;92.30
1351;DHT22;669;50.206;9.998;2023-04-03T00:11:07;3.10;92.40
1351;DHT22;669;50.206;9.998;2023-04-03T00:13:37;3.10;92.90
1351;DHT22;669;50.206;9.998;2023-04-03T00:16:05;3.10;93.00
1351;DHT22;669;50.206;9.998;2023-04-03T00:18:34;3.10;93.10
1351;DHT22;669;50.206;9.998;2023-04-03T00:21:02;3.10;93.20
1351;DHT22;669;50.206;9.998;2023-04-03T00:23:32;3.10;93.40
1351;DHT22;669;50.206;9.998;2023-04-03T00:26:00;3.10;93.40
1351;DHT22;669;50.206;9.998;2023-04-03T00:28:28;3.10;93.10
1351;DHT22;669;50.206;9.998;2023-04-03T00:30:57;3.10;93.60
1351;DHT22;669;50.206;9.998;2023-04-03T00:33:25;3.10;94.00
1351;DHT22;669;50.206;9.998;2023-04-03T00:35:53;3.20;94.00
1351;DHT22;669;50.206;9.998;2023-04-03T00:38:21;3.20;93.90
1351;DHT22;669;50.206;9.998;2023-04-03T00:40:50;3.20;94.10
1351;DHT22;669;50.206;9.998;2023-04-03T00:43:21;3.20;94.30
1351;DHT22;669;50.206;9.998;2023-04-03T00:45:51;3.20;94.20
1351;DHT22;669;50.206;9.998;2023-04-03T00:48:23;3.20;94.30
1351;DHT22;669;50.206;9.998;2023-04-03T00:50:52;3.20;94.50
1351;DHT22;669;50.206;9.998;2023-04-03T00:53:23;3.20;94.60
1351;DHT22;669;50.206;9.998;2023-04-03T00:55:54;3.20;94.90
1351;DHT22;669;50.206;9.998;2023-04-03T00:58:27;3.20;94.50
1351;DHT22;669;50.206;9.998;2023-04-03T01:00:58;3.20;94.70
1351;DHT22;669;50.206;9.998;2023-04-03T01:03:26;3.20;94.60
1351;DHT22;669;50.206;9.998;2023-04-03T01:05:54;3.20;94.30
1351;DHT22;669;50.206;9.998;2023-04-03T01:08:22;3.20;94.00
1351;DHT22;669;50.206;9.998;2023-04-03T01:10:50;3.20;94.20
1351;DHT22;669;50.206;9.998;2023-04-03T01:13:23;3.20;93.80
1351;DHT22;669;50.206;9.998;2023-04-03T01:15:52;3.20;94.50
1351;DHT22;669;50.206;9.998;2023-04-03T01:18:20;3.20;92.50
1351;DHT22;669;50.206;9.998;2023-04-03T01:24:20;3.20;91.90
1351;DHT22;669;50.206;9.998;2023-04-03T01:26:51;3.30;91.00
1351;DHT22;669;50.206;9.998;2023-04-03T01:29:20;3.30;90.40
1351;DHT22;669;50.206;9.998;2023-04-03T01:31:53;3.30;89.80
1351;DHT22;669;50.206;9.998;2023-04-03T01:34:22;3.30;90.10
1351;DHT22;669;50.206;9.998;2023-04-03T01:36:51;3.30;88.90
1351;DHT22;669;50.206;9.998;2023-04-03T01:39:20;3.30;89.30
1351;DHT22;669;50.206;9.998;2023-04-03T01:41:48;3.30;87.60
1351;DHT22;669;50.206;9.998;2023-04-03T01:44:16;3.30;87.60
1351;DHT22;669;50.206;9.998;2023-04-03T01:46:44;3.30;89.00
1351;DHT22;669;50.206;9.998;2023-04-03T01:49:14;3.30;87.60
1351;DHT22;669;50.206;9.998;2023-04-03T01:51:42;3.30;87.90
1351;DHT22;669;50.206;9.998;2023-04-03T01:54:10;3.30;88.00
1351;DHT22;669;50.206;9.998;2023-04-03T01:56:38;3.30;85.70
1351;DHT22;669;50.206;9.998;2023-04-03T01:59:06;3.20;85.20
1351;DHT22;669;50.206;9.998;2023-04-03T02:01:34;3.20;87.20
1351;DHT22;669;50.206;9.998;2023-04-03T02:04:03;3.20;86.50
1351;DHT22;669;50.206;9.998;2023-04-03T02:06:32;3.20;87.50
1351;DHT22;669;50.206;9.998;2023-04-03T02:09:00;3.20;87.80
1351;DHT22;669;50.206;9.998;2023-04-03T02:11:28;3.30;87.20
1351;DHT22;669;50.206;9.998;2023-04-03T02:13:56;3.20;87.50
1351;DHT22;669;50.206;9.998;2023-04-03T02:16:24;3.10;85.80
1351;DHT22;669;50.206;9.998;2023-04-03T02:18:52;3.10;85.60
1351;DHT22;669;50.206;9.998;2023-04-03T02:21:20;3.10;85.10
1351;DHT22;669;50.206;9.998;2023-04-03T02:23:49;3.00;85.00
1351;DHT22;669;50.206;9.998;2023-04-03T02:26:17;3.00;87.40
1351;DHT22;669;50.206;9.998;2023-04-03T02:28:45;3.00;86.40
1351;DHT22;669;50.206;9.998;2023-04-03T02:31:13;2.90;86.30
1351;DHT22;669;50.206;9.998;2023-04-03T02:33:41;2.90;85.40
1351;DHT22;669;50.206;9.998;2023-04-03T02:36:10;2.90;83.30
1351;DHT22;669;50.206;9.998;2023-04-03T02:38:38;2.80;81.90
1351;DHT22;669;50.206;9.998;2023-04-03T02:41:09;2.80;81.90
1351;DHT22;669;50.206;9.998;2023-04-03T02:43:38;2.70;83.80
1351;DHT22;669;50.206;9.998;2023-04-03T02:46:07;2.70;83.20
1351;DHT22;669;50.206;9.998;2023-04-03T02:48:35;2.60;82.70
1351;DHT22;669;50.206;9.998;2023-04-03T02:51:04;2.60;84.40
1351;DHT22;669;50.206;9.998;2023-04-03T02:53:32;2.60;84.50
1351;DHT22;669;50.206;9.998;2023-04-03T02:56:00;2.60;85.10
1351;DHT22;669;50.206;9.998;2023-04-03T02:58:29;2.50;84.10
1351;DHT22;669;50.206;9.998;2023-04-03T03:00:57;2.50;83.90
1351;DHT22;669;50.206;9.998;2023-04-03T03:03:25;2.40;85.00
1351;DHT22;669;50.206;9.998;2023-04-03T03:06:01;2.40;84.10
1351;DHT22;669;50.206;9.998;2023-04-03T03:08:29;2.40;85.50
1351;DHT22;669;50.206;9.998;2023-04-03T03:10:57;2.30;85.80
1351;DHT22;669;50.206;9.998;2023-04-03T03:13:25;2.30;84.60
1351;DHT22;669;50.206;9.998;2023-04-03T03:15:54;2.20;83.30
1351;DHT22;669;50.206;9.998;2023-04-03T03:18:23;2.20;84.80
1351;DHT22;669;50.206;9.998;2023-04-03T03:20:52;2.10;85.30
1351;DHT22;669;50.206;9.998;2023-04-03T03:23:20;2.10;86.00
1351;DHT22;669;50.206;9.998;2023-04-03T03:25:48;2.00;85.20
1351;DHT22;669;50.206;9.998;2023-04-03T03:28:17;2.00;86.40
1351;DHT22;669;50.206;9.998;2023-04-03T03:30:44;1.90;85.00
1351;DHT22;669;50.206;9.998;2023-04-03T03:33:14;1.90;86.90
1351;DHT22;669;50.206;9.998;2023-04-03T03:35:42;1.80;85.10
1351;DHT22;669;50.206;9.998;2023-04-03T03:38:11;1.80;85.60
1351;DHT22;669;50.206;9.998;2023-04-03T03:40:39;1.80;85.50
1351;DHT22;669;50.206;9.998;2023-04-03T03:43:07;1.70;86.10
1351;DHT22;669;50.206;9.998;2023-04-03T03:45:35;1.70;86.70
1351;DHT22;669;50.206;9.998;2023-04-03T03:48:03;1.60;86.30
1351;DHT22;669;50.206;9.998;2023-04-03T03:50:33;1.60;86.80
1351;DHT22;669;50.206;9.998;2023-04-03T03:53:01;1.60;87.00
1351;DHT22;669;50.206;9.998;2023-04-03T03:55:29;1.50;87.00
1351;DHT22;669;50.206;9.998;2023-04-03T03:57:57;1.50;87.40
1351;DHT22;669;50.206;9.998;2023-04-03T04:00:26;1.50;88.00
1351;DHT22;669;50.206;9.998;2023-04-03T04:02:54;1.40;87.80
1351;DHT22;669;50.206;9.998;2023-04-03T04:05:25;1.40;87.00
1351;DHT22;669;50.206;9.998;2023-04-03T04:07:54;1.30;87.80
1351;DHT22;669;50.206;9.998;2023-04-03T04:10:22;1.30;87.70
1351;DHT22;669;50.206;9.998;2023-04-03T04:12:50;1.20;87.80
1351;DHT22;669;50.206;9.998;2023-04-03T04:15:18;1.20;87.50
1351;DHT22;669;50.206;9.998;2023-04-03T04:17:48;1.20;87.00
1351;DHT22;669;50.206;9.998;2023-04-03T04:20:16;1.10;89.00
1351;DHT22;669;50.206;9.998;2023-04-03T04:22:44;1.10;87.70
1351;DHT22;669;50.206;9.998;2023-04-03T04:25:13;1.00;88.40
1351;DHT22;669;50.206;9.998;2023-04-03T04:27:41;1.00;88.40
1351;DHT22;669;50.206;9.998;2023-04-03T04:30:10;1.00;89.60
1351;DHT22;669;50.206;9.998;2023-04-03T04:32:38;0.90;89.80
1351;DHT22;669;50.206;9.998;2023-04-03T04:35:06;0.90;89.50
1351;DHT22;669;50.206;9.998;2023-04-03T04:37:34;0.90;89.90
1351;DHT22;669;50.206;9.998;2023-04-03T04:40:03;0.90;89.80
1351;DHT22;669;50.206;9.998;2023-04-03T04:42:32;0.90;89.70
1351;DHT22;669;50.206;9.998;2023-04-03T04:45:00;0.90;90.10
1351;DHT22;669;50.206;9.998;2023-04-03T04:47:29;0.80;88.20
1351;DHT22;669;50.206;9.998;2023-04-03T04:49:57;0.80;90.00
1351;DHT22;669;50.206;9.998;2023-04-03T04:52:25;0.80;89.90
1351;DHT22;669;50.206;9.998;2023-04-03T04:54:53;0.70;90.20
1351;DHT22;669;50.206;9.998;2023-04-03T04:57:21;0.70;90.00
1351;DHT22;669;50.206;9.998;2023-04-03T04:59:50;0.70;90.00
1351;DHT22;669;50.206;9.998;2023-04-03T05:02:18;0.70;90.10
1351;DHT22;669;50.206;9.998;2023-04-03T05:04:46;0.70;90.70
1351;DHT22;669;50.206;9.998;2023-04-03T05:07:14;0.70;90.20
1351;DHT22;669;50.206;9.998;2023-04-03T05:09:41;0.70;89.40
1351;DHT22;669;50.206;9.998;2023-04-03T05:12:09;0.60;90.10
1351;DHT22;669;50.206;9.998;2023-04-03T05:14:37;0.70;90.00
1351;DHT22;669;50.206;9.998;2023-04-03T05:17:07;0.70;89.50
1351;DHT22;669;50.206;9.998;2023-04-03T05:19:35;0.60;89.60
1351;DHT22;669;50.206;9.998;2023-04-03T05:22:03;0.60;88.90
1351;DHT22;669;50.206;9.998;2023-04-03T05:24:30;0.60;88.50
1351;DHT22;669;50.206;9.998;2023-04-03T05:26:58;0.80;89.90
1351;DHT22;669;50.206;9.998;2023-04-03T05:29:26;1.00;88.90
1351;DHT22;669;50.206;9.998;2023-04-03T05:31:54;1.30;87.60
1351;DHT22;669;50.206;9.998;2023-04-03T05:34:24;1.60;84.50
1351;DHT22;669;50.206;9.998;2023-04-03T05:36:51;1.90;80.90
1351;DHT22;669;50.206;9.998;2023-04-03T05:39:19;2.10;81.60
1351;DHT22;669;50.206;9.998;2023-04-03T05:41:48;2.40;78.30
1351;DHT22;669;50.206;9.998;2023-04-03T05:44:16;2.60;78.00
1351;DHT22;669;50.206;9.998;2023-04-03T05:46:44;2.90;77.00
1351;DHT22;669;50.206;9.998;2023-04-03T05:49:12;3.10;73.50
1351;DHT22;669;50.206;9.998;2023-04-03T05:51:41;3.20;70.70
1351;DHT22;669;50.206;9.998;2023-04-03T05:54:15;3.40;71.00
1351;DHT22;669;50.206;9.998;2023-04-03T05:56:44;3.50;69.20
1351;DHT22;669;50.206;9.998;2023-04-03T05:59:12;3.60;68.70
1351;DHT22;669;50.206;9.998;2023-04-03T06:01:40;3.90;67.50
1351;DHT22;669;50.206;9.998;2023-04-03T06:04:08;4.10;66.40
1351;DHT22;669;50.206;9.998;2023-04-03T06:06:46;4.40;65.90
1351;DHT22;669;50.206;9.998;2023-04-03T06:09:15;4.60;65.30
1351;DHT22;669;50.206;9.998;2023-04-03T06:11:43;4.70;63.90
1351;DHT22;669;50.206;9.998;2023-04-03T06:14:12;4.90;60.60
1351;DHT22;669;50.206;9.998;2023-04-03T06:16:40;5.00;60.70
1351;DHT22;669;50.206;9.998;2023-04-03T06:19:09;5.30;62.70
1351;DHT22;669;50.206;9.998;2023-04-03T06:21:38;5.50;61.90
1351;DHT22;669;50.206;9.998;2023-04-03T06:24:07;5.60;57.20
1351;DHT22;669;50.206;9.998;2023-04-03T06:26:35;5.60;58.20
1351;DHT22;669;50.206;9.998;2023-04-03T06:29:03;5.70;57.30
1351;DHT22;669;50.206;9.998;2023-04-03T06:31:31;5.80;57.10
1351;DHT22;669;50.206;9.998;2023-04-03T06:33:59;5.90;56.50
1351;DHT22;669;50.206;9.998;2023-04-03T06:36:28;6.00;56.00
1351;DHT22;669;50.206;9.998;2023-04-03T06:38:56;6.00;55.80
1351;DHT22;669;50.206;9.998;2023-04-03T06:41:25;6.10;54.20
1351;DHT22;669;50.206;9.998;2023-04-03T06:43:53;6.30;55.10
1351;DHT22;669;50.206;9.998;2023-04-03T06:46:24;6.40;53.40
1351;DHT22;669;50.206;9.998;2023-04-03T06:48:53;6.50;53.70
1351;DHT22;669;50.206;9.998;2023-04-03T06:51:22;6.50;52.20
1351;DHT22;669;50.206;9.998;2023-04-03T06:53:52;6.50;53.00
1351;DHT22;669;50.206;9.998;2023-04-03T06:56:22;6.70;52.50
1351;DHT22;669;50.206;9.998;2023-04-03T06:58:51;6.70;50.50
1351;DHT22;669;50.206;9.998;2023-04-03T07:01:21;6.80;52.00
1351;DHT22;669;50.206;9.998;2023-04-03T07:03:49;6.90;49.60
1351;DHT22;669;50.206;9.998;2023-04-03T07:06:18;6.80;51.20
1351;DHT22;669;50.206;9.998;2023-04-03T07:08:46;6.90;51.70
1351;DHT22;669;50.206;9.998;2023-04-03T07:11:15;7.10;50.20
1351;DHT22;669;50.206;9.998;2023-04-03T07:13:43;7.50;51.20
1351;DHT22;669;50.206;9.998;2023-04-03T07:16:13;7.60;47.00
1351;DHT22;669;50.206;9.998;2023-04-03T07:18:41;7.60;46.40
1351;DHT22;669;50.206;9.998;2023-04-03T07:21:09;7.70;46.20
1351;DHT22;669;50.206;9.998;2023-04-03T07:23:37;7.50;46.90
1351;DHT22;669;50.206;9.998;2023-04-03T07:26:05;7.50;49.30
1351;DHT22;669;50.206;9.998;2023-04-03T07:28:33;7.60;49.80
1351;DHT22;669;50.206;9.998;2023-04-03T07:31:02;7.70;47.20
1351;DHT22;669;50.206;9.998;2023-04-03T07:33:33;7.60;47.50
1351;DHT22;669;50.206;9.998;2023-04-03T07:36:02;7.60;43.50
1351;DHT22;669;50.206;9.998;2023-04-03T07:38:30;7.60;46.10
1351;DHT22;669;50.206;9.998;2023-04-03T07:40:58;7.50;44.40
1351;DHT22;669;50.206;9.998;2023-04-03T07:43:26;7.70;45.10
1351;DHT22;669;50.206;9.998;2023-04-03T07:45:54;7.60;44.50
1351;DHT22;669;50.206;9.998;2023-04-03T07:48:24;7.10;44.90
1351;DHT22;669;50.206;9.998;2023-04-03T07:50:53;6.80;45.70
1351;DHT22;669;50.206;9.998;2023-04-03T07:53:21;6.70;46.70
1351;DHT22;669;50.206;9.998;2023-04-03T07:55:49;6.60;44.00
1351;DHT22;669;50.206;9.998;2023-04-03T07:58:21;6.50;47.10
1351;DHT22;669;50.206;9.998;2023-04-03T08:00:50;6.60;48.80
1351;DHT22;669;50.206;9.998;2023-04-03T08:03:18;6.80;46.40
1351;DHT22;669;50.206;9.998;2023-04-03T08:05:47;7.20;47.40
1351;DHT22;669;50.206;9.998;2023-04-03T08:08:19;7.20;44.80
1351;DHT22;669;50.206;9.998;2023-04-03T08:10:49;7.50;46.60
1351;DHT22;669;50.206;9.998;2023-04-03T08:13:17;7.70;42.60
1351;DHT22;669;50.206;9.998;2023-04-03T08:15:45;7.90;42.50
1351;DHT22;669;50.206;9.998;2023-04-03T08:18:13;8.10;41.10
1351;DHT22;669;50.206;9.998;2023-04-03T08:20:42;8.10;39.80
1351;DHT22;669;50.206;9.998;2023-04-03T08:23:10;8.50;42.10
1351;DHT22;669;50.206;9.998;2023-04-03T08:25:41;8.60;40.60
1351;DHT22;669;50.206;9.998;2023-04-03T08:28:09;8.90;41.20
1351;DHT22;669;50.206;9.998;2023-04-03T08:30:39;8.80;38.90
1351;DHT22;669;50.206;9.998;2023-04-03T08:33:08;9.00;38.40
1351;DHT22;669;50.206;9.998;2023-04-03T08:35:39;8.60;38.60
1351;DHT22;669;50.206;9.998;2023-04-03T08:38:08;8.30;39.40
1351;DHT22;669;50.206;9.998;2023-04-03T08:40:36;8.60;41.70
1351;DHT22;669;50.206;9.998;2023-04-03T08:43:20;8.80;40.50
1351;DHT22;669;50.206;9.998;2023-04-03T08:45:55;8.60;40.50
1351;DHT22;669;50.206;9.998;2023-04-03T08:48:28;8.10;40.40
1351;DHT22;669;50.206;9.998;2023-04-03T08:51:00;8.00;38.90
1351;DHT22;669;50.206;9.998;2023-04-03T08:53:41;8.30;41.20
1351;DHT22;669;50.206;9.998;2023-04-03T08:56:12;8.30;40.60
1351;DHT22;669;50.206;9.998;2023-04-03T08:58:49;8.10;38.90
1351;DHT22;669;50.206;9.998;2023-04-03T09:01:21;7.50;39.20
1351;DHT22;669;50.206;9.998;2023-04-03T09:03:50;7.40;38.70
1351;DHT22;669;50.206;9.998;2023-04-03T09:06:21;7.40;39.80
1351;DHT22;669;50.206;9.998;2023-04-03T09:08:53;7.30;40.90
1351;DHT22;669;50.206;9.998;2023-04-03T09:11:26;7.20;41.30
1351;DHT22;669;50.206;9.998;2023-04-03T09:14:01;6.90;40.60
1351;DHT22;669;50.206;9.998;2023-04-03T09:16:36;7.30;39.20
1351;DHT22;669;50.206;9.998;2023-04-03T09:19:15;7.30;38.80
1351;DHT22;669;50.206;9.998;2023-04-03T09:21:46;7.90;35.00
1351;DHT22;669;50.206;9.998;2023-04-03T09:24:16;7.80;37.30
1351;DHT22;669;50.206;9.998;2023-04-03T09:26:48;7.70;35.40
1351;DHT22;669;50.206;9.998;2023-04-03T09:29:21;7.90;39.50
1351;DHT22;669;50.206;9.998;2023-04-03T09:31:54;8.60;36.10
1351;DHT22;669;50.206;9.998;2023-04-03T09:34:25;8.30;35.80
1351;DHT22;669;50.206;9.998;2023-04-03T09:36:56;8.60;35.10
1351;DHT22;669;50.206;9.998;2023-04-03T09:39:26;8.50;35.30
1351;DHT22;669;50.206;9.998;2023-04-03T09:41:57;7.90;31.80
1351;DHT22;669;50.206;9.998;2023-04-03T09:44:28;7.40;35.30
1351;DHT22;669;50.206;9.998;2023-04-03T09:46:56;7.80;33.60
1351;DHT22;669;50.206;9.998;2023-04-03T09:49:25;8.10;36.20
1351;DHT22;669;50.206;9.998;2023-04-03T09:51:53;7.90;35.20
1351;DHT22;669;50.206;9.998;2023-04-03T09:54:34;8.30;30.40
1351;DHT22;669;50.206;9.998;2023-04-03T09:57:08;8.80;32.40
1351;DHT22;669;50.206;9.998;2023-04-03T09:59:47;9.00;28.70
1351;DHT22;669;50.206;9.998;2023-04-03T10:02:32;8.60;28.80
1351;DHT22;669;50.206;9.998;2023-04-03T10:05:02;8.70;33.30
1351;DHT22;669;50.206;9.998;2023-04-03T10:07:35;9.00;30.70
1351;DHT22;669;50.206;9.998;2023-04-03T10:10:22;9.00;31.60
1351;DHT22;669;50.206;9.998;2023-04-03T10:13:04;9.40;29.10
1351;DHT22;669;50.206;9.998;2023-04-03T10:15:40;9.50;33.10
1351;DHT22;669;50.206;9.998;2023-04-03T10:18:29;10.10;29.90
1351;DHT22;669;50.206;9.998;2023-04-03T10:21:03;10.50;31.20
1351;DHT22;669;50.206;9.998;2023-04-03T10:23:46;10.10;28.80
1351;DHT22;669;50.206;9.998;2023-04-03T10:26:28;10.40;28.20
1351;DHT22;669;50.206;9.998;2023-04-03T10:29:04;10.40;29.20
1351;DHT22;669;50.206;9.998;2023-04-03T10:31:42;10.40;30.20
1351;DHT22;669;50.206;9.998;2023-04-03T10:34:20;10.30;30.40
1351;DHT22;669;50.206;9.998;2023-04-03T10:36:53;10.50;27.60
1351;DHT22;669;50.206;9.998;2023-04-03T10:39:30;10.30;32.90
1351;DHT22;669;50.206;9.998;2023-04-03T10:42:05;10.70;28.90
1351;DHT22;669;50.206;9.998;2023-04-03T10:44:56;10.90;28.30
1351;DHT22;669;50.206;9.998;2023-04-03T10:47:34;11.10;26.80
1351;DHT22;669;50.206;9.998;2023-04-03T10:50:20;10.80;30.10
1351;DHT22;669;50.206;9.998;2023-04-03T10:52:53;10.90;27.70
1351;DHT22;669;50.206;9.998;2023-04-03T10:55:32;11.30;28.30
1351;DHT22;669;50.206;9.998;2023-04-03T10:58:02;11.30;27.70
1351;DHT22;669;50.206;9.998;2023-04-03T11:00:36;11.60;29.60
1351;DHT22;669;50.206;9.998;2023-04-03T11:03:11;12.00;26.60
1351;DHT22;669;50.206;9.998;2023-04-03T11:05:43;11.80;27.50
1351;DHT22;669;50.206;9.998;2023-04-03T11:08:19;11.70;27.90
1351;DHT22;669;50.206;9.998;2023-04-03T11:10:54;11.50;26.90
1351;DHT22;669;50.206;9.998;2023-04-03T11:13:28;11.90;26.40
1351;DHT22;669;50.206;9.998;2023-04-03T11:16:00;12.10;25.00
1351;DHT22;669;50.206;9.998;2023-04-03T11:18:35;11.40;26.00
1351;DHT22;669;50.206;9.998;2023-04-03T11:21:09;11.20;25.10
1351;DHT22;669;50.206;9.998;2023-04-03T11:23:40;11.30;28.30
1351;DHT22;669;50.206;9.998;2023-04-03T11:26:18;11.50;26.10
1351;DHT22;669;50.206;9.998;2023-04-03T11:28:52;11.70;23.80
1351;DHT22;669;50.206;9.998;2023-04-03T11:31:29;11.50;25.60
1351;DHT22;669;50.206;9.998;2023-04-03T11:34:12;11.20;24.40
1351;DHT22;669;50.206;9.998;2023-04-03T11:36:44;11.20;25.30
1351;DHT22;669;50.206;9.998;2023-04-03T11:39:20;10.60;24.40
1351;DHT22;669;50.206;9.998;2023-04-03T11:41:50;10.20;27.20
1351;DHT22;669;50.206;9.998;2023-04-03T11:44:35;10.20;27.10
1351;DHT22;669;50.206;9.998;2023-04-03T11:47:05;10.60;25.80
1351;DHT22;669;50.206;9.998;2023-04-03T11:49:59;10.40;25.80
1351;DHT22;669;50.206;9.998;2023-04-03T11:52:59;10.00;23.70
1351;DHT22;669;50.206;9.998;2023-04-03T11:55:52;10.50;27.10
1351;DHT22;669;50.206;9.998;2023-04-03T11:58:21;10.70;27.00
1351;DHT22;669;50.206;9.998;2023-04-03T12:00:54;10.90;26.80
1351;DHT22;669;50.206;9.998;2023-04-03T12:06:43;11.50;24.20
1351;DHT22;669;50.206;9.998;2023-04-03T12:09:33;11.20;24.40
1351;DHT22;669;50.206;9.998;2023-04-03T12:12:27;11.60;23.30
1351;DHT22;669;50.206;9.998;2023-04-03T12:15:22;11.70;26.10
1351;DHT22;669;50.206;9.998;2023-04-03T12:17:50;11.70;25.40
1351;DHT22;669;50.206;9.998;2023-04-03T12:20:52;11.90;22.30
1351;DHT22;669;50.206;9.998;2023-04-03T12:23:27;12.10;25.00
1351;DHT22;669;50.206;9.998;2023-04-03T12:26:04;11.80;24.30
1351;DHT22;669;50.206;9.998;2023-04-03T12:28:38;11.40;25.90
1351;DHT22;669;50.206;9.998;2023-04-03T12:31:09;11.30;25.50
1351;DHT22;669;50.206;9.998;2023-04-03T12:34:00;11.50;29.00
1351;DHT22;669;50.206;9.998;2023-04-03T12:36:39;11.70;26.50
1351;DHT22;669;50.206;9.998;2023-04-03T12:39:25;11.70;24.80
1351;DHT22;669;50.206;9.998;2023-04-03T12:42:09;11.80;24.80
1351;DHT22;669;50.206;9.998;2023-04-03T12:44:50;11.20;25.30
1351;DHT22;669;50.206;9.998;2023-04-03T12:47:27;11.00;27.00
1351;DHT22;669;50.206;9.998;2023-04-03T12:49:57;10.60;24.90
1351;DHT22;669;50.206;9.998;2023-04-03T12:52:33;11.00;26.60
1351;DHT22;669;50.206;9.998;2023-04-03T12:55:08;11.40;26.50
1351;DHT22;669;50.206;9.998;2023-04-03T12:57:36;11.50;24.70
1351;DHT22;669;50.206;9.998;2023-04-03T13:00:20;11.40;26.00
1351;DHT22;669;50.206;9.998;2023-04-03T13:02:48;11.40;24.90
1351;DHT22;669;50.206;9.998;2023-04-03T13:05:18;11.30;27.80
1351;DHT22;669;50.206;9.998;2023-04-03T13:07:49;11.60;26.80
1351;DHT22;669;50.206;9.998;2023-04-03T13:10:19;11.40;24.60
1351;DHT22;669;50.206;9.998;2023-04-03T13:12:49;11.40;25.50
1351;DHT22;669;50.206;9.998;2023-04-03T13:15:20;11.50;25.20
1351;DHT22;669;50.206;9.998;2023-04-03T13:17:49;11.50;26.80
1351;DHT22;669;50.206;9.998;2023-04-03T13:20:28;11.40;24.60
1351;DHT22;669;50.206;9.998;2023-04-03T13:23:00;11.50;24.20
1351;DHT22;669;50.206;9.998;2023-04-03T13:25:32;11.20;29.10
1351;DHT22;669;50.206;9.998;2023-04-03T13:28:02;10.90;24.60
1351;DHT22;669;50.206;9.998;2023-04-03T13:30:40;11.10;24.40
1351;DHT22;669;50.206;9.998;2023-04-03T13:33:23;10.90;25.90
1351;DHT22;669;50.206;9.998;2023-04-03T13:35:55;10.70;25.70
1351;DHT22;669;50.206;9.998;2023-04-03T13:38:25;9.80;29.50
1351;DHT22;669;50.206;9.998;2023-04-03T13:40:57;10.10;30.00
1351;DHT22;669;50.206;9.998;2023-04-03T13:43:29;10.40;28.30
1351;DHT22;669;50.206;9.998;2023-04-03T13:46:02;10.70;29.10
1351;DHT22;669;50.206;9.998;2023-04-03T13:48:37;10.90;27.50
1351;DHT22;669;50.206;9.998;2023-04-03T13:51:16;11.00;25.70
1351;DHT22;669;50.206;9.998;2023-04-03T13:53:47;10.90;26.00
1351;DHT22;669;50.206;9.998;2023-04-03T13:56:23;10.70;24.10
1351;DHT22;669;50.206;9.998;2023-04-03T13:58:54;10.70;22.50
1351;DHT22;669;50.206;9.998;2023-04-03T14:01:24;10.20;28.30
1351;DHT22;669;50.206;9.998;2023-04-03T14:03:55;10.40;27.70
1351;DHT22;669;50.206;9.998;2023-04-03T14:06:23;10.50;27.40
1351;DHT22;669;50.206;9.998;2023-04-03T14:08:52;10.50;26.60
1351;DHT22;669;50.206;9.998;2023-04-03T14:11:23;10.50;26.60
1351;DHT22;669;50.206;9.998;2023-04-03T14:13:51;10.50;26.30
1351;DHT22;669;50.206;9.998;2023-04-03T14:16:23;10.50;26.40
1351;DHT22;669;50.206;9.998;2023-04-03T14:18:53;10.40;26.20
1351;DHT22;669;50.206;9.998;2023-04-03T14:21:22;10.40;25.30
1351;DHT22;669;50.206;9.998;2023-04-03T14:23:50;10.40;24.80
1351;DHT22;669;50.206;9.998;2023-04-03T14:26:20;10.40;26.00
1351;DHT22;669;50.206;9.998;2023-04-03T14:28:52;10.20;25.30
1351;DHT22;669;50.206;9.998;2023-04-03T14:31:21;10.10;27.00
1351;DHT22;669;50.206;9.998;2023-04-03T14:33:49;10.10;25.60
1351;DHT22;669;50.206;9.998;2023-04-03T14:36:20;10.00;25.50
1351;DHT22;669;50.206;9.998;2023-04-03T14:38:49;9.90;27.20
1351;DHT22;669;50.206;9.998;2023-04-03T14:41:19;10.00;26.10
1351;DHT22;669;50.206;9.998;2023-04-03T14:43:47;9.90;27.00
1351;DHT22;669;50.206;9.998;2023-04-03T14:46:19;9.90;27.10
1351;DHT22;669;50.206;9.998;2023-04-03T14:48:50;9.80;29.10
1351;DHT22;669;50.206;9.998;2023-04-03T14:51:18;9.90;27.10
1351;DHT22;669;50.206;9.998;2023-04-03T14:53:45;9.90;26.60
1351;DHT22;669;50.206;9.998;2023-04-03T14:56:16;9.90;28.70
1351;DHT22;669;50.206;9.998;2023-04-03T14:58:44;9.60;28.20
1351;DHT22;669;50.206;9.998;2023-04-03T15:01:17;9.50;29.80
1351;DHT22;669;50.206;9.998;2023-04-03T15:03:45;9.20;29.20
1351;DHT22;669;50.206;9.998;2023-04-03T15:06:14;9.00;28.80
1351;DHT22;669;50.206;9.998;2023-04-03T15:08:44;8.90;28.50
1351;DHT22;669;50.206;9.998;2023-04-03T15:11:14;8.80;29.80
1351;DHT22;669;50.206;9.998;2023-04-03T15:13:42;8.70;29.10
1351;DHT22;669;50.206;9.998;2023-04-03T15:16:15;8.70;28.60
1351;DHT22;669;50.206;9.998;2023-04-03T15:18:45;8.70;27.40
1351;DHT22;669;50.206;9.998;2023-04-03T15:21:14;8.90;28.10
1351;DHT22;669;50.206;9.998;2023-04-03T15:23:42;8.90;27.50
1351;DHT22;669;50.206;9.998;2023-04-03T15:26:10;9.00;28.40
1351;DHT22;669;50.206;9.998;2023-04-03T15:28:39;9.00;28.00
1351;DHT22;669;50.206;9.998;2023-04-03T15:31:08;8.90;29.10
1351;DHT22;669;50.206;9.998;2023-04-03T15:33:36;8.80;31.10
1351;DHT22;669;50.206;9.998;2023-04-03T15:36:06;8.70;27.90
1351;DHT22;669;50.206;9.998;2023-04-03T15:38:54;8.40;27.90
1351;DHT22;669;50.206;9.998;2023-04-03T15:41:22;8.30;29.70
1351;DHT22;669;50.206;9.998;2023-04-03T15:43:50;8.20;29.20
1351;DHT22;669;50.206;9.998;2023-04-03T15:46:18;8.00;28.80
1351;DHT22;669;50.206;9.998;2023-04-03T15:48:46;7.90;29.30
1351;DHT22;669;50.206;9.998;2023-04-03T15:51:17;7.70;28.00
1351;DHT22;669;50.206;9.998;2023-04-03T15:53:45;7.60;30.00
1351;DHT22;669;50.206;9.998;2023-04-03T15:56:13;7.40;28.00
1351;DHT22;669;50.206;9.998;2023-04-03T15:58:41;7.30;30.60
1351;DHT22;669;50.206;9.998;2023-04-03T16:01:09;7.20;29.50
1351;DHT22;669;50.206;9.998;2023-04-03T16:03:40;7.20;29.40
1351;DHT22;669;50.206;9.998;2023-04-03T16:06:12;7.20;32.00
1351;DHT22;669;50.206;9.998;2023-04-03T16:08:42;7.00;27.90
1351;DHT22;669;50.206;9.998;2023-04-03T16:11:09;7.00;30.00
1351;DHT22;669;50.206;9.998;2023-04-03T16:13:37;6.90;31.10
1351;DHT22;669;50.206;9.998;2023-04-03T16:16:06;6.90;32.80
1351;DHT22;669;50.206;9.998;2023-04-03T16:18:34;6.90;31.30
1351;DHT22;669;50.206;9.998;2023-04-03T16:21:03;6.90;30.00
1351;DHT22;669;50.206;9.998;2023-04-03T16:23:31;6.80;29.90
1351;DHT22;669;50.206;9.998;2023-04-03T16:26:00;6.80;31.00
1351;DHT22;669;50.206;9.998;2023-04-03T16:28:28;6.70;30.10
1351;DHT22;669;50.206;9.998;2023-04-03T16:30:56;6.60;33.20
1351;DHT22;669;50.206;9.998;2023-04-03T16:33:24;6.50;32.20
1351;DHT22;669;50.206;9.998;2023-04-03T16:35:52;6.40;31.80
1351;DHT22;669;50.206;9.998;2023-04-03T16:38:20;6.30;32.00
1351;DHT22;669;50.206;9.998;2023-04-03T16:40:49;6.20;30.10
1351;DHT22;669;50.206;9.998;2023-04-03T16:43:18;6.20;32.50
1351;DHT22;669;50.206;9.998;2023-04-03T16:45:46;6.00;30.70
1351;DHT22;669;50.206;9.998;2023-04-03T16:48:14;5.90;31.80
1351;DHT22;669;50.206;9.998;2023-04-03T16:50:42;5.80;30.20
1351;DHT22;669;50.206;9.998;2023-04-03T16:53:14;5.80;31.20
1351;DHT22;669;50.206;9.998;2023-04-03T16:55:42;5.70;29.50
1351;DHT22;669;50.206;9.998;2023-04-03T16:58:10;5.70;33.40
1351;DHT22;669;50.206;9.998;2023-04-03T17:00:39;5.70;30.10